createdAt,value
2023-07-25T00:01:05.212Z,40.75
2023-07-25T00:03:31.848Z,40.61
2023-07-25T00:05:58.336Z,40.60
2023-07-25T00:08:25.858Z,40.83
2023-07-25T00:10:52.365Z,40.73
2023-07-25T00:13:19.399Z,40.77
2023-07-25T00:15:45.841Z,40.83
2023-07-25T00:18:12.347Z,40.66
2023-07-25T00:20:38.754Z,40.88
2023-07-25T00:23:05.221Z,40.92
2023-07-25T00:25:31.712Z,40.71
2023-07-25T00:27:58.242Z,40.74
2023-07-25T00:30:25.164Z,40.60
2023-07-25T00:32:51.723Z,40.59
2023-07-25T00:35:18.157Z,40.71
2023-07-25T00:37:44.606Z,40.73
2023-07-25T00:40:11.324Z,40.88
2023-07-25T00:42:37.715Z,40.75
2023-07-25T00:45:04.388Z,40.63
2023-07-25T00:47:30.913Z,40.67
2023-07-25T00:49:57.402Z,40.67
2023-07-25T00:52:23.883Z,40.51
2023-07-25T00:54:50.808Z,40.83
2023-07-25T00:57:17.972Z,40.57
2023-07-25T00:59:44.825Z,40.86
2023-07-25T01:02:13.506Z,40.54
2023-07-25T01:04:40.744Z,40.60
2023-07-25T01:07:07.319Z,40.62
2023-07-25T01:09:37.738Z,40.63
2023-07-25T01:12:05.380Z,40.66
2023-07-25T01:14:33.179Z,40.69
2023-07-25T01:17:03.922Z,40.71
2023-07-25T01:19:30.895Z,40.56
2023-07-25T01:21:57.922Z,40.68
2023-07-25T01:24:24.642Z,40.82
2023-07-25T01:26:51.094Z,40.56
2023-07-25T01:29:17.593Z,40.75
2023-07-25T01:31:44.010Z,40.64
2023-07-25T01:34:10.461Z,40.59
2023-07-25T01:36:36.884Z,40.87
2023-07-25T01:39:03.328Z,40.74
2023-07-25T01:41:30.102Z,40.74
2023-07-25T01:43:56.711Z,40.65
2023-07-25T01:46:23.121Z,40.50
2023-07-25T01:48:50.035Z,40.77
2023-07-25T01:51:16.528Z,40.74
2023-07-25T01:53:42.950Z,40.67
2023-07-25T01:56:09.374Z,40.61
2023-07-25T01:58:35.778Z,40.72
2023-07-25T02:01:02.268Z,40.63
2023-07-25T02:03:28.787Z,40.86
2023-07-25T02:05:55.235Z,40.56
2023-07-25T02:08:21.626Z,40.58
2023-07-25T02:10:48.057Z,40.51
2023-07-25T02:13:14.465Z,40.60
2023-07-25T02:15:40.857Z,40.60
2023-07-25T02:18:07.312Z,40.78
2023-07-25T02:20:33.925Z,40.48
2023-07-25T02:23:00.820Z,40.51
2023-07-25T02:25:27.427Z,40.73
2023-07-25T02:27:53.844Z,40.64
2023-07-25T02:30:21.640Z,40.59
2023-07-25T02:32:48.255Z,40.87
2023-07-25T02:35:15.682Z,40.54
2023-07-25T02:37:42.357Z,40.84
2023-07-25T02:40:08.982Z,40.70
2023-07-25T02:42:35.682Z,40.70
2023-07-25T02:45:02.308Z,40.84
2023-07-25T02:47:28.930Z,40.71
2023-07-25T02:49:55.418Z,40.83
2023-07-25T02:52:22.043Z,40.64
2023-07-25T02:54:48.464Z,40.84
2023-07-25T02:57:15.042Z,40.93
2023-07-25T02:59:41.481Z,40.79
2023-07-25T03:02:08.262Z,40.73
2023-07-25T03:04:34.681Z,40.69
2023-07-25T03:07:01.123Z,40.94
2023-07-25T03:09:27.794Z,40.67
2023-07-25T03:11:54.236Z,40.99
2023-07-25T03:14:20.975Z,40.84
2023-07-25T03:16:47.485Z,40.80
2023-07-25T03:19:14.018Z,40.67
2023-07-25T03:21:40.427Z,40.93
2023-07-25T03:24:06.954Z,40.70
2023-07-25T03:26:33.361Z,41.03
2023-07-25T03:28:59.775Z,40.95
2023-07-25T03:31:26.200Z,41.04
2023-07-25T03:33:53.227Z,41.12
2023-07-25T03:36:19.635Z,40.97
2023-07-25T03:38:46.054Z,40.94
2023-07-25T03:41:12.472Z,41.23
2023-07-25T03:43:38.856Z,40.84
2023-07-25T03:46:05.358Z,41.22
2023-07-25T03:48:33.180Z,41.01
2023-07-25T03:50:59.560Z,41.08
2023-07-25T03:53:26.182Z,41.13
2023-07-25T03:55:52.760Z,41.16
2023-07-25T03:58:19.149Z,41.21
2023-07-25T04:00:45.768Z,41.15
2023-07-25T04:03:15.451Z,40.79
2023-07-25T04:05:42.353Z,41.11
2023-07-25T04:08:08.781Z,41.05
2023-07-25T04:10:35.194Z,41.14
2023-07-25T04:13:01.603Z,40.96
2023-07-25T04:15:27.991Z,41.11
2023-07-25T04:17:54.573Z,41.15
2023-07-25T04:20:21.026Z,41.08
2023-07-25T04:22:47.427Z,40.96
2023-07-25T04:25:13.833Z,41.06
2023-07-25T04:27:40.216Z,41.05
2023-07-25T04:30:06.943Z,41.05
2023-07-25T04:32:33.399Z,41.03
2023-07-25T04:34:59.992Z,40.93
2023-07-25T04:37:26.440Z,40.98
2023-07-25T04:39:52.877Z,40.96
2023-07-25T04:42:19.253Z,41.09
2023-07-25T04:44:45.892Z,40.96
2023-07-25T04:47:12.350Z,41.02
2023-07-25T04:49:38.801Z,41.24
2023-07-25T04:52:05.492Z,41.12
2023-07-25T04:54:31.896Z,40.99
2023-07-25T04:56:58.309Z,41.28
2023-07-25T04:59:24.714Z,40.91
2023-07-25T05:01:51.186Z,41.26
2023-07-25T05:04:17.654Z,41.26
2023-07-25T05:06:44.282Z,41.06
2023-07-25T05:09:10.723Z,40.99
2023-07-25T05:11:37.123Z,41.06
2023-07-25T05:14:03.536Z,40.97
2023-07-25T05:16:29.968Z,41.28
2023-07-25T05:18:56.438Z,41.15
2023-07-25T05:21:22.940Z,41.13
2023-07-25T05:23:49.336Z,41.01
2023-07-25T05:26:15.808Z,41.03
2023-07-25T05:28:42.290Z,41.22
2023-07-25T05:31:08.727Z,41.00
2023-07-25T05:33:35.176Z,40.93
2023-07-25T05:36:04.937Z,40.90
2023-07-25T05:38:31.327Z,41.23
2023-07-25T05:40:57.799Z,41.27
2023-07-25T05:43:24.230Z,41.00
2023-07-25T05:45:50.718Z,41.25
2023-07-25T05:48:17.156Z,41.25
2023-07-25T05:50:43.536Z,41.09
2023-07-25T05:53:09.970Z,41.25
2023-07-25T05:55:36.417Z,40.98
2023-07-25T05:58:02.981Z,41.05
2023-07-25T06:00:29.419Z,40.91
2023-07-25T06:02:55.939Z,41.05
2023-07-25T06:05:22.385Z,40.99
2023-07-25T06:07:48.816Z,40.93
2023-07-25T06:10:15.275Z,41.18
2023-07-25T06:12:43.248Z,41.19
2023-07-25T06:15:10.097Z,40.88
2023-07-25T06:17:36.533Z,41.17
2023-07-25T06:20:03.094Z,40.83
2023-07-25T06:22:29.533Z,41.14
2023-07-25T06:24:56.080Z,40.91
2023-07-25T06:27:24.986Z,41.04
2023-07-25T06:29:53.000Z,40.84
2023-07-25T06:32:19.483Z,40.96
2023-07-25T06:34:45.948Z,41.06
2023-07-25T06:37:12.393Z,40.84
2023-07-25T06:39:38.803Z,40.93
2023-07-25T06:42:05.294Z,40.86
2023-07-25T06:44:31.725Z,40.75
2023-07-25T06:46:58.227Z,40.93
2023-07-25T06:49:24.717Z,40.71
2023-07-25T06:51:51.137Z,40.62
2023-07-25T06:54:17.595Z,40.69
2023-07-25T06:56:44.028Z,40.96
2023-07-25T06:59:10.479Z,40.83
2023-07-25T07:01:36.910Z,41.29
2023-07-25T07:04:03.356Z,42.29
2023-07-25T07:06:29.789Z,43.53
2023-07-25T07:08:56.220Z,43.58
2023-07-25T07:11:22.646Z,43.92
2023-07-25T07:13:49.140Z,44.44
2023-07-25T07:16:15.580Z,44.61
2023-07-25T07:18:42.069Z,44.54
2023-07-25T07:21:08.964Z,44.70
2023-07-25T07:23:35.350Z,44.50
2023-07-25T07:26:01.811Z,44.37
2023-07-25T07:28:28.324Z,44.61
2023-07-25T07:30:54.795Z,44.48
2023-07-25T07:33:21.268Z,44.86
2023-07-25T07:35:47.689Z,44.45
2023-07-25T07:38:14.178Z,44.31
2023-07-25T07:40:40.762Z,44.52
2023-07-25T07:43:07.134Z,44.56
2023-07-25T07:45:33.626Z,44.55
2023-07-25T07:48:01.585Z,44.43
2023-07-25T07:50:29.693Z,44.48
2023-07-25T07:52:56.154Z,44.29
2023-07-25T07:55:22.979Z,44.40
2023-07-25T07:57:49.491Z,44.38
2023-07-25T08:00:16.332Z,44.41
2023-07-25T08:02:44.092Z,44.62
2023-07-25T08:05:11.370Z,44.54
2023-07-25T08:07:38.220Z,44.43
2023-07-25T08:10:05.040Z,44.42
2023-07-25T08:12:31.747Z,44.33
2023-07-25T08:14:58.236Z,44.32
2023-07-25T08:17:24.751Z,44.50
2023-07-25T08:19:51.509Z,44.67
2023-07-25T08:22:18.338Z,44.26
2023-07-25T08:24:44.958Z,44.28
2023-07-25T08:27:11.514Z,44.25
2023-07-25T08:29:41.680Z,44.03
2023-07-25T08:32:08.988Z,44.28
2023-07-25T08:34:35.806Z,44.05
2023-07-25T08:37:02.388Z,43.96
2023-07-25T08:39:28.797Z,43.83
2023-07-25T08:41:56.288Z,44.09
2023-07-25T08:44:22.841Z,43.82
2023-07-25T08:46:51.347Z,43.59
2023-07-25T08:49:18.568Z,43.80
2023-07-25T08:51:45.290Z,43.41
2023-07-25T08:54:16.306Z,43.59
2023-07-25T08:56:42.804Z,43.59
2023-07-25T08:59:11.392Z,43.27
2023-07-25T09:01:38.063Z,43.40
2023-07-25T09:04:05.038Z,43.08
2023-07-25T09:06:31.996Z,42.96
2023-07-25T09:08:58.637Z,42.95
2023-07-25T09:11:25.061Z,42.86
2023-07-25T09:13:51.534Z,43.05
2023-07-25T09:16:18.163Z,42.71
2023-07-25T09:18:44.578Z,42.56
2023-07-25T09:21:12.882Z,42.25
2023-07-25T09:23:40.580Z,42.01
2023-07-25T09:26:09.749Z,41.97
2023-07-25T09:28:36.222Z,42.27
2023-07-25T09:31:05.258Z,41.84
2023-07-25T09:33:31.885Z,42.11
2023-07-25T09:35:58.748Z,42.41
2023-07-25T09:38:25.175Z,43.05
2023-07-25T09:40:51.641Z,43.35
2023-07-25T09:43:24.534Z,43.32
2023-07-25T09:45:51.969Z,43.52
2023-07-25T09:48:18.754Z,43.65
2023-07-25T09:50:48.044Z,43.40
2023-07-25T09:53:15.551Z,43.38
2023-07-25T09:55:42.606Z,43.28
2023-07-25T09:58:09.589Z,43.15
2023-07-25T10:00:36.349Z,43.22
2023-07-25T10:03:02.999Z,43.20
2023-07-25T10:05:30.089Z,42.92
2023-07-25T10:08:00.493Z,42.84
2023-07-25T10:10:27.540Z,42.58
2023-07-25T10:12:54.578Z,42.48
2023-07-25T10:15:21.433Z,42.21
2023-07-25T10:17:48.392Z,42.57
2023-07-25T10:20:22.999Z,42.31
2023-07-25T10:22:49.600Z,42.46
2023-07-25T10:25:20.154Z,42.70
2023-07-25T10:27:47.488Z,42.84
2023-07-25T10:30:24.369Z,42.53
2023-07-25T10:32:58.190Z,42.66
2023-07-25T10:35:40.249Z,42.19
2023-07-25T10:38:13.077Z,41.93
2023-07-25T10:40:53.940Z,41.78
2023-07-25T10:43:27.343Z,41.65
2023-07-25T10:45:54.480Z,41.75
2023-07-25T10:48:31.058Z,41.87
2023-07-25T10:50:58.513Z,41.64
2023-07-25T10:53:25.796Z,41.69
2023-07-25T10:56:07.869Z,41.67
2023-07-25T10:58:36.679Z,41.62
2023-07-25T11:01:03.294Z,41.39
2023-07-25T11:03:29.693Z,41.34
2023-07-25T11:06:08.368Z,41.19
2023-07-25T11:08:35.646Z,41.14
2023-07-25T11:11:06.279Z,41.09
2023-07-25T11:13:33.777Z,41.32
2023-07-25T11:16:02.163Z,41.16
2023-07-25T11:18:28.761Z,41.18
2023-07-25T11:21:02.142Z,41.25
2023-07-25T11:23:28.787Z,41.02
2023-07-25T11:25:55.836Z,40.71
2023-07-25T11:28:23.005Z,40.97
2023-07-25T11:30:49.598Z,40.86
2023-07-25T11:33:16.190Z,40.86
2023-07-25T11:35:42.927Z,40.87
2023-07-25T11:38:10.744Z,41.00
2023-07-25T11:40:41.627Z,40.73
2023-07-25T11:43:12.499Z,40.82
2023-07-25T11:45:39.470Z,40.53
2023-07-25T11:48:09.328Z,40.63
2023-07-25T11:50:36.424Z,40.52
2023-07-25T11:53:03.280Z,40.41
2023-07-25T11:55:29.898Z,40.22
2023-07-25T11:57:56.695Z,40.25
2023-07-25T12:00:23.957Z,40.03
2023-07-25T12:02:50.497Z,40.21
2023-07-25T12:05:28.008Z,40.17
2023-07-25T12:07:59.491Z,40.15
2023-07-25T12:10:27.341Z,40.11
2023-07-25T12:12:55.105Z,40.18
2023-07-25T12:15:22.126Z,40.13
2023-07-25T12:17:48.610Z,40.59
2023-07-25T12:20:15.241Z,40.53
2023-07-25T12:22:41.654Z,40.35
2023-07-25T12:25:08.371Z,40.50
2023-07-25T12:27:34.866Z,40.74
2023-07-25T12:30:01.346Z,40.72
2023-07-25T12:32:27.802Z,40.83
2023-07-25T12:35:01.793Z,40.90
2023-07-25T12:37:28.284Z,40.61
2023-07-25T12:39:54.701Z,40.62
2023-07-25T12:42:21.136Z,40.90
2023-07-25T12:44:47.618Z,40.69
2023-07-25T12:47:14.051Z,40.54
2023-07-25T12:49:40.526Z,40.64
2023-07-25T12:52:07.306Z,40.71
2023-07-25T12:54:35.856Z,40.74
2023-07-25T12:57:02.345Z,40.78
2023-07-25T12:59:28.785Z,40.62
2023-07-25T13:01:55.427Z,40.68
2023-07-25T13:04:21.992Z,40.72
2023-07-25T13:06:48.835Z,40.61
2023-07-25T13:09:15.278Z,40.71
2023-07-25T13:11:41.909Z,40.39
2023-07-25T13:14:08.793Z,40.38
2023-07-25T13:16:35.295Z,40.42
2023-07-25T13:19:01.849Z,40.66
2023-07-25T13:21:28.428Z,40.57
2023-07-25T13:23:54.946Z,40.36
2023-07-25T13:26:21.383Z,40.66
2023-07-25T13:28:48.167Z,40.62
2023-07-25T13:31:14.617Z,40.70
2023-07-25T13:33:41.050Z,40.68
2023-07-25T13:36:07.785Z,40.60
2023-07-25T13:38:34.223Z,40.39
2023-07-25T13:41:00.682Z,40.29
2023-07-25T13:43:27.160Z,40.45
2023-07-25T13:45:53.746Z,40.31
2023-07-25T13:48:21.640Z,40.49
2023-07-25T13:50:53.819Z,40.42
2023-07-25T13:53:21.756Z,40.56
2023-07-25T13:55:48.173Z,40.36
2023-07-25T13:58:23.591Z,40.34
2023-07-25T14:00:50.900Z,40.48
2023-07-25T14:03:17.317Z,40.61
2023-07-25T14:05:43.801Z,40.32
2023-07-25T14:08:10.458Z,40.52
2023-07-25T14:10:37.567Z,40.58
2023-07-25T14:13:04.383Z,40.43
2023-07-25T14:15:31.791Z,40.38
2023-07-25T14:17:58.566Z,40.52
2023-07-25T14:20:25.436Z,40.43
2023-07-25T14:22:51.836Z,40.41
2023-07-25T14:25:18.363Z,40.32
2023-07-25T14:27:44.949Z,40.41
2023-07-25T14:30:12.572Z,40.26
2023-07-25T14:32:39.061Z,40.42
2023-07-25T14:35:05.688Z,40.13
2023-07-25T14:37:44.244Z,40.36
2023-07-25T14:40:18.562Z,40.40
2023-07-25T14:42:45.094Z,40.34
2023-07-25T14:45:12.018Z,40.45
2023-07-25T14:47:38.770Z,40.10
2023-07-25T14:50:05.590Z,39.91
2023-07-25T14:52:32.028Z,39.95
2023-07-25T14:54:58.531Z,39.76
2023-07-25T14:57:24.933Z,39.62
2023-07-25T14:59:51.328Z,39.62
2023-07-25T15:02:18.776Z,39.35
2023-07-25T15:04:45.683Z,39.34
2023-07-25T15:07:12.147Z,39.35
2023-07-25T15:09:38.700Z,39.13
2023-07-25T15:12:05.442Z,39.17
2023-07-25T15:14:31.913Z,38.96
2023-07-25T15:16:58.543Z,38.74
2023-07-25T15:19:26.613Z,38.74
2023-07-25T15:21:54.836Z,38.77
2023-07-25T15:24:21.292Z,38.90
2023-07-25T15:26:48.168Z,38.74
2023-07-25T15:29:14.692Z,38.91
2023-07-25T15:31:41.115Z,38.69
2023-07-25T15:34:07.530Z,38.64
2023-07-25T15:36:33.943Z,38.80
2023-07-25T15:39:00.432Z,38.58
2023-07-25T15:41:26.883Z,38.51
2023-07-25T15:43:53.529Z,38.50
2023-07-25T15:46:20.034Z,38.52
2023-07-25T15:48:48.591Z,38.66
2023-07-25T15:51:15.353Z,38.60
2023-07-25T15:53:41.826Z,38.52
2023-07-25T15:56:08.388Z,38.49
2023-07-25T15:58:34.806Z,38.27
2023-07-25T16:01:01.682Z,38.35
2023-07-25T16:03:28.285Z,38.22
2023-07-25T16:05:54.738Z,38.41
2023-07-25T16:08:21.147Z,38.26
2023-07-25T16:10:47.654Z,38.08
2023-07-25T16:13:14.970Z,38.10
2023-07-25T16:15:41.383Z,38.21
2023-07-25T16:18:07.886Z,38.20
2023-07-25T16:20:34.337Z,38.20
2023-07-25T16:23:00.910Z,38.01
2023-07-25T16:25:27.665Z,37.94
2023-07-25T16:27:54.182Z,38.05
2023-07-25T16:30:20.586Z,37.88
2023-07-25T16:32:47.127Z,37.98
2023-07-25T16:35:13.835Z,37.75
2023-07-25T16:37:41.472Z,37.76
2023-07-25T16:40:08.181Z,37.68
2023-07-25T16:42:34.606Z,37.71
2023-07-25T16:45:01.444Z,37.68
2023-07-25T16:47:28.008Z,37.62
2023-07-25T16:49:54.456Z,37.77
2023-07-25T16:52:20.910Z,37.60
2023-07-25T16:54:47.329Z,37.75
2023-07-25T16:57:13.821Z,37.75
2023-07-25T16:59:40.233Z,37.70
2023-07-25T17:02:06.932Z,37.57
2023-07-25T17:04:33.408Z,37.57
2023-07-25T17:06:59.885Z,37.71
2023-07-25T17:09:26.333Z,37.55
2023-07-25T17:11:53.058Z,37.54
2023-07-25T17:14:19.473Z,37.55
2023-07-25T17:16:46.013Z,37.37
2023-07-25T17:19:14.681Z,37.40
2023-07-25T17:21:42.107Z,37.41
2023-07-25T17:24:09.026Z,37.19
2023-07-25T17:26:35.991Z,37.34
2023-07-25T17:29:02.502Z,37.24
2023-07-25T17:31:29.098Z,37.11
2023-07-25T17:33:55.605Z,37.12
2023-07-25T17:36:22.042Z,37.19
2023-07-25T17:38:48.515Z,36.98
2023-07-25T17:41:15.025Z,36.91
2023-07-25T17:43:41.421Z,36.79
2023-07-25T17:46:07.930Z,36.75
2023-07-25T17:48:34.462Z,36.75
2023-07-25T17:51:01.128Z,36.54
2023-07-25T17:53:27.704Z,36.65
2023-07-25T17:55:55.746Z,36.54
2023-07-25T17:58:22.231Z,36.62
2023-07-25T18:00:50.430Z,36.56
2023-07-25T18:03:17.206Z,36.30
2023-07-25T18:05:46.290Z,36.36
2023-07-25T18:08:12.822Z,36.26
2023-07-25T18:10:39.257Z,36.28
2023-07-25T18:13:05.697Z,36.02
2023-07-25T18:15:32.167Z,36.14
2023-07-25T18:17:58.689Z,35.94
2023-07-25T18:20:25.182Z,35.88
2023-07-25T18:22:51.677Z,35.86
2023-07-25T18:25:18.208Z,35.98
2023-07-25T18:27:44.812Z,35.76
2023-07-25T18:30:11.462Z,35.79
2023-07-25T18:32:37.924Z,35.52
2023-07-25T18:35:06.590Z,35.58
2023-07-25T18:37:33.192Z,35.68
2023-07-25T18:39:59.760Z,35.54
2023-07-25T18:42:26.283Z,35.49
2023-07-25T18:44:52.757Z,35.41
2023-07-25T18:47:33.695Z,35.36
2023-07-25T18:50:01.350Z,35.16
2023-07-25T18:52:27.880Z,35.28
2023-07-25T18:54:54.327Z,35.21
2023-07-25T18:57:21.552Z,35.34
2023-07-25T18:59:48.580Z,35.30
2023-07-25T19:02:15.079Z,35.25
2023-07-25T19:04:42.106Z,35.10
2023-07-25T19:07:08.798Z,35.30
2023-07-25T19:09:35.248Z,35.32
2023-07-25T19:12:01.697Z,35.17
2023-07-25T19:14:28.122Z,35.10
2023-07-25T19:16:54.712Z,35.01
2023-07-25T19:19:21.208Z,35.12
2023-07-25T19:21:47.592Z,35.11
2023-07-25T19:24:13.972Z,35.15
2023-07-25T19:26:40.450Z,35.05
2023-07-25T19:29:06.902Z,35.25
2023-07-25T19:31:33.333Z,35.01
2023-07-25T19:33:59.791Z,35.28
2023-07-25T19:36:26.221Z,35.13
2023-07-25T19:38:52.694Z,35.15
2023-07-25T19:41:19.816Z,35.24
2023-07-25T19:43:46.428Z,35.13
2023-07-25T19:46:13.034Z,35.29
2023-07-25T19:48:39.507Z,35.27
2023-07-25T19:51:10.473Z,35.16
2023-07-25T19:53:37.406Z,35.27
2023-07-25T19:56:03.989Z,35.37
2023-07-25T19:58:30.455Z,35.39
2023-07-25T20:00:57.866Z,35.44
2023-07-25T20:03:24.415Z,35.44
2023-07-25T20:05:51.051Z,35.48
2023-07-25T20:08:17.564Z,35.44
2023-07-25T20:10:44.213Z,35.53
2023-07-25T20:13:10.687Z,35.74
2023-07-25T20:15:37.115Z,35.63
2023-07-25T20:18:03.767Z,35.61
2023-07-25T20:20:30.355Z,35.63
2023-07-25T20:22:56.864Z,35.52
2023-07-25T20:25:23.374Z,35.61
2023-07-25T20:27:49.807Z,35.82
2023-07-25T20:30:16.247Z,35.75
2023-07-25T20:32:42.784Z,35.84
2023-07-25T20:35:09.281Z,35.85
2023-07-25T20:37:35.851Z,35.95
2023-07-25T20:40:02.289Z,36.35
2023-07-25T20:42:28.688Z,36.50
2023-07-25T20:44:55.212Z,36.59
2023-07-25T20:47:21.710Z,36.45
2023-07-25T20:49:48.328Z,36.62
2023-07-25T20:52:14.768Z,36.53
2023-07-25T20:54:41.273Z,36.65
2023-07-25T20:57:07.730Z,36.71
2023-07-25T20:59:34.182Z,36.71
2023-07-25T21:02:00.723Z,36.65
2023-07-25T21:04:28.890Z,36.67
2023-07-25T21:06:55.717Z,36.65
2023-07-25T21:09:22.146Z,36.61
2023-07-25T21:11:48.592Z,36.76
2023-07-25T21:14:15.009Z,36.74
2023-07-25T21:16:41.763Z,36.74
2023-07-25T21:19:08.174Z,36.68
2023-07-25T21:21:35.164Z,36.87
2023-07-25T21:24:01.731Z,36.65
2023-07-25T21:26:28.293Z,36.76
2023-07-25T21:28:54.925Z,36.71
2023-07-25T21:31:21.479Z,36.87
2023-07-25T21:33:47.916Z,36.87
2023-07-25T21:36:14.635Z,36.75
2023-07-25T21:38:41.749Z,36.90
2023-07-25T21:41:09.045Z,36.94
2023-07-25T21:43:35.860Z,36.90
2023-07-25T21:46:02.792Z,37.08
2023-07-25T21:48:30.334Z,37.00
2023-07-25T21:50:57.813Z,37.00
2023-07-25T21:53:28.302Z,36.97
2023-07-25T21:55:55.262Z,36.98
2023-07-25T21:58:22.102Z,37.05
2023-07-25T22:00:48.545Z,37.03
2023-07-25T22:03:15.963Z,37.19
2023-07-25T22:05:42.581Z,37.08
2023-07-25T22:08:09.356Z,37.16
2023-07-25T22:10:36.018Z,37.13
2023-07-25T22:13:02.563Z,37.20
2023-07-25T22:15:29.385Z,37.21
2023-07-25T22:17:55.965Z,37.26
2023-07-25T22:20:22.472Z,37.18
2023-07-25T22:22:49.900Z,37.49
2023-07-25T22:25:16.360Z,37.31
2023-07-25T22:27:42.957Z,37.24
2023-07-25T22:30:09.549Z,37.34
2023-07-25T22:32:36.451Z,37.45
2023-07-25T22:35:03.100Z,37.19
2023-07-25T22:37:30.362Z,37.40
2023-07-25T22:39:56.797Z,37.49
2023-07-25T22:42:23.689Z,37.33
2023-07-25T22:44:50.140Z,37.48
2023-07-25T22:47:16.830Z,37.53
2023-07-25T22:49:43.237Z,37.51
2023-07-25T22:52:09.740Z,37.51
2023-07-25T22:54:36.129Z,37.46
2023-07-25T22:57:03.097Z,37.55
2023-07-25T22:59:29.509Z,37.52
2023-07-25T23:01:55.971Z,37.55
2023-07-25T23:04:22.391Z,37.62
2023-07-25T23:06:48.891Z,37.57
2023-07-25T23:09:15.334Z,37.56
2023-07-25T23:11:41.755Z,37.68
2023-07-25T23:14:08.199Z,37.70
2023-07-25T23:16:35.069Z,37.62
2023-07-25T23:19:01.592Z,37.65
2023-07-25T23:21:28.259Z,37.72
2023-07-25T23:23:54.799Z,37.77
2023-07-25T23:26:21.410Z,37.65
2023-07-25T23:28:47.920Z,37.59
2023-07-25T23:31:14.371Z,37.76
2023-07-25T23:33:40.885Z,37.53
2023-07-25T23:36:07.422Z,37.86
2023-07-25T23:38:33.895Z,37.81
2023-07-25T23:41:00.371Z,37.59
2023-07-25T23:43:26.788Z,37.88
2023-07-25T23:45:53.497Z,37.68
2023-07-25T23:48:20.829Z,37.80
2023-07-25T23:50:47.495Z,37.85
2023-07-25T23:53:13.949Z,37.61
2023-07-25T23:55:40.442Z,37.83
2023-07-25T23:58:06.906Z,37.86
